createdAt,value
2018-12-19T00:02:12.487Z,3.97
2018-12-19T00:04:40.771Z,4.00
2018-12-19T00:07:08.486Z,7.23
2018-12-19T00:09:36.256Z,10.63
2018-12-19T00:12:04.510Z,3.30
2018-12-19T00:14:32.141Z,5.77
2018-12-19T00:17:00.566Z,4.47
2018-12-19T00:19:28.503Z,8.13
2018-12-19T00:21:56.425Z,6.07
2018-12-19T00:24:24.906Z,3.00
2018-12-19T00:26:52.559Z,11.17
2018-12-19T00:29:20.188Z,5.03
2018-12-19T00:31:47.806Z,5.07
2018-12-19T00:34:15.441Z,7.33
2018-12-19T00:36:43.135Z,5.03
2018-12-19T00:39:10.832Z,2.10
2018-12-19T00:44:28.562Z,4.80
2018-12-19T00:46:56.144Z,6.50
2018-12-19T00:49:23.768Z,4.00
2018-12-19T00:51:51.422Z,2.50
2018-12-19T00:54:19.051Z,5.83
2018-12-19T00:56:46.688Z,4.40
2018-12-19T00:59:14.285Z,8.93
2018-12-19T01:01:41.939Z,4.10
2018-12-19T01:04:29.501Z,21.53
2018-12-19T01:06:57.975Z,3.50
2018-12-19T01:51:09.788Z,4.80
2018-12-19T01:53:37.517Z,2.23
2018-12-19T01:56:05.243Z,2.60
2018-12-19T01:58:32.873Z,6.70
2018-12-19T02:01:00.469Z,5.27
2018-12-19T02:03:28.534Z,11.50
2018-12-19T02:05:57.212Z,3.93
2018-12-19T02:08:24.848Z,2.23
2018-12-19T02:10:52.580Z,3.80
2018-12-19T02:13:20.196Z,1.90
2018-12-19T02:15:47.821Z,7.70
2018-12-19T02:18:15.423Z,3.17
2018-12-19T02:20:43.214Z,2.00
2018-12-19T02:23:10.849Z,3.47
2018-12-19T02:25:38.447Z,4.93
2018-12-19T02:28:06.075Z,1.77
2018-12-19T02:30:33.692Z,3.30
2018-12-19T02:33:01.504Z,2.93
2018-12-19T02:35:29.116Z,5.43
2018-12-19T02:37:56.698Z,7.60
2018-12-19T02:40:24.483Z,1.63
2018-12-19T02:42:52.071Z,3.53
2018-12-19T02:45:19.655Z,2.93
2018-12-19T02:47:47.282Z,6.10
2018-12-19T02:50:14.888Z,3.27
2018-12-19T02:52:42.513Z,2.43
2018-12-19T02:55:10.129Z,1.97
2018-12-19T02:57:37.746Z,2.33
2018-12-19T03:00:05.777Z,2.80
2018-12-19T03:02:33.431Z,3.10
2018-12-19T03:05:01.042Z,3.30
2018-12-19T03:07:28.664Z,2.27
2018-12-19T03:09:56.278Z,1.87
2018-12-19T03:12:23.892Z,2.90
2018-12-19T03:14:51.515Z,1.97
2018-12-19T03:17:19.098Z,1.47
2018-12-19T03:19:46.737Z,2.03
2018-12-19T03:22:14.331Z,3.30
2018-12-19T03:24:41.946Z,3.53
2018-12-19T03:27:09.539Z,3.23
2018-12-19T03:29:37.298Z,2.50
2018-12-19T03:32:04.972Z,3.13
2018-12-19T03:34:32.614Z,4.23
2018-12-19T03:37:00.244Z,1.77
2018-12-19T03:39:27.972Z,2.73
2018-12-19T03:41:55.582Z,2.27
2018-12-19T03:44:23.235Z,1.57
2018-12-19T03:46:50.910Z,1.90
2018-12-19T03:49:18.601Z,1.57
2018-12-19T03:51:46.521Z,6.37
2018-12-19T03:54:14.155Z,4.87
2018-12-19T03:56:42.299Z,2.10
2018-12-19T03:59:09.925Z,2.33
2018-12-19T04:01:37.563Z,2.33
2018-12-19T04:04:05.320Z,3.47
2018-12-19T04:06:32.955Z,3.53
2018-12-19T04:09:03.839Z,1.93
2018-12-19T04:11:31.566Z,2.13
2018-12-19T04:13:59.549Z,1.57
2018-12-19T04:16:27.266Z,8.40
2018-12-19T04:18:54.961Z,2.90
2018-12-19T04:21:22.626Z,2.67
2018-12-19T04:23:50.339Z,2.57
2018-12-19T04:26:17.989Z,1.67
2018-12-19T04:28:45.631Z,2.57
2018-12-19T04:31:13.237Z,2.30
2018-12-19T04:33:40.851Z,2.80
2018-12-19T04:36:08.595Z,1.93
2018-12-19T04:38:36.503Z,1.43
2018-12-19T04:41:04.127Z,6.73
2018-12-19T04:43:31.841Z,3.53
2018-12-19T04:45:59.512Z,2.73
2018-12-19T04:48:27.093Z,1.83
2018-12-19T04:50:54.705Z,2.00
2018-12-19T04:53:22.284Z,16.57
2018-12-19T04:55:49.965Z,1.30
2018-12-19T04:58:17.633Z,2.63
2018-12-19T05:00:45.360Z,3.43
2018-12-19T05:03:14.522Z,6.23
2018-12-19T05:05:42.546Z,2.57
2018-12-19T05:08:10.211Z,3.33
2018-12-19T05:10:38.169Z,3.00
2018-12-19T05:13:06.012Z,1.60
2018-12-19T05:15:33.805Z,5.10
2018-12-19T05:18:01.437Z,2.03
2018-12-19T05:20:29.112Z,5.70
2018-12-19T05:22:56.916Z,3.77
2018-12-19T05:25:24.577Z,23.73
2018-12-19T05:27:52.305Z,2.10
2018-12-19T05:30:19.930Z,1.90
2018-12-19T05:32:47.590Z,1.33
2018-12-19T05:35:15.198Z,1.53
2018-12-19T05:37:43.204Z,1.40
2018-12-19T05:40:10.788Z,3.03
2018-12-19T05:42:38.451Z,1.60
2018-12-19T05:45:08.263Z,1.20
2018-12-19T05:47:36.248Z,4.97
2018-12-19T05:50:12.182Z,3.63
2018-12-19T05:52:40.015Z,3.67
2018-12-19T05:55:07.640Z,8.80
2018-12-19T05:57:36.226Z,4.50
2018-12-19T06:00:06.819Z,2.63
2018-12-19T06:02:36.113Z,3.40
2018-12-19T06:05:05.498Z,6.10
2018-12-19T06:07:34.603Z,5.87
2018-12-19T06:10:03.771Z,2.27
2018-12-19T06:12:32.926Z,1.53
2018-12-19T06:15:02.050Z,1.20
2018-12-19T06:17:31.104Z,1.77
2018-12-19T06:20:00.187Z,2.60
2018-12-19T06:22:29.207Z,1.60
2018-12-19T06:24:58.304Z,3.63
2018-12-19T06:30:22.487Z,9.90
2018-12-19T06:36:03.048Z,8.67
2018-12-19T06:38:30.595Z,3.57
2018-12-19T06:40:58.172Z,11.37
2018-12-19T06:43:25.905Z,9.90
2018-12-19T06:45:53.476Z,17.20
2018-12-19T06:48:21.019Z,11.73
2018-12-19T06:50:48.803Z,14.80
2018-12-19T06:53:16.390Z,11.40
2018-12-19T06:55:43.999Z,8.93
2018-12-19T06:58:11.612Z,5.80
2018-12-19T07:00:39.190Z,5.53
2018-12-19T07:03:06.847Z,5.30
2018-12-19T07:05:34.392Z,4.37
2018-12-19T07:08:01.966Z,5.60
2018-12-19T07:10:29.671Z,6.60
2018-12-19T07:12:57.432Z,5.80
2018-12-19T07:15:25.037Z,12.20
2018-12-19T07:17:52.684Z,5.97
2018-12-19T07:20:20.388Z,4.80
2018-12-19T07:22:47.969Z,4.50
2018-12-19T07:25:15.534Z,7.57
2018-12-19T07:27:43.157Z,18.27
2018-12-19T07:30:10.764Z,9.90
2018-12-19T07:32:38.447Z,10.23
2018-12-19T07:35:05.970Z,15.43
2018-12-19T07:37:33.720Z,15.80
2018-12-19T07:40:01.288Z,13.13
2018-12-19T07:42:28.856Z,10.37
2018-12-19T07:44:56.456Z,13.33
2018-12-19T07:47:24.046Z,16.77
2018-12-19T07:49:51.639Z,17.73
2018-12-19T07:52:19.246Z,11.43
2018-12-19T07:54:46.896Z,7.20
2018-12-19T07:57:14.546Z,2.97
2018-12-19T07:59:42.141Z,20.27
2018-12-19T08:02:09.709Z,6.90
2018-12-19T08:04:37.460Z,4.47
2018-12-19T08:07:05.070Z,6.97
2018-12-19T08:09:32.681Z,11.13
2018-12-19T08:12:00.311Z,6.67
2018-12-19T08:14:27.908Z,9.73
2018-12-19T08:16:55.472Z,18.93
2018-12-19T08:19:23.077Z,6.60
2018-12-19T08:21:50.682Z,11.50
2018-12-19T08:24:18.258Z,6.00
2018-12-19T08:26:45.903Z,5.80
2018-12-19T08:29:13.455Z,5.87
2018-12-19T08:31:41.112Z,7.10
2018-12-19T08:34:08.825Z,7.00
2018-12-19T08:36:36.423Z,4.40
2018-12-19T08:39:05.719Z,7.87
2018-12-19T08:41:33.322Z,3.03
2018-12-19T08:44:00.906Z,5.47
2018-12-19T08:46:28.518Z,7.27
2018-12-19T08:48:56.082Z,10.33
2018-12-19T08:51:23.646Z,5.37
2018-12-19T08:53:51.297Z,2.53
2018-12-19T08:56:18.873Z,2.87
2018-12-19T08:58:46.492Z,8.63
2018-12-19T09:01:14.048Z,2.67
2018-12-19T09:03:41.608Z,5.57
2018-12-19T09:06:09.220Z,9.17
2018-12-19T09:08:36.883Z,3.00
2018-12-19T09:11:05.802Z,4.83
2018-12-19T09:13:33.818Z,3.37
2018-12-19T09:16:01.362Z,3.20
2018-12-19T09:18:28.936Z,14.70
2018-12-19T09:20:56.563Z,5.43
2018-12-19T09:23:24.122Z,2.93
2018-12-19T09:25:52.940Z,2.20
2018-12-19T09:28:20.644Z,3.63
2018-12-19T09:30:48.391Z,3.30
2018-12-19T09:33:15.972Z,7.60
2018-12-19T09:35:43.694Z,5.43
2018-12-19T09:38:11.311Z,2.33
2018-12-19T09:40:38.874Z,2.07
2018-12-19T09:43:06.492Z,3.00
2018-12-19T09:45:34.076Z,6.80
2018-12-19T09:48:01.669Z,10.40
2018-12-19T09:50:29.254Z,2.07
2018-12-19T09:52:56.880Z,7.77
2018-12-19T09:55:24.439Z,3.30
2018-12-19T09:57:52.061Z,4.17
2018-12-19T10:00:25.292Z,5.77
2018-12-19T10:02:52.940Z,2.40
2018-12-19T10:05:20.584Z,6.43
2018-12-19T10:07:48.203Z,5.03
2018-12-19T10:10:15.769Z,4.13
2018-12-19T10:12:43.481Z,4.73
2018-12-19T10:15:11.086Z,1.40
2018-12-19T10:17:41.082Z,4.97
2018-12-19T10:20:08.335Z,2.20
2018-12-19T10:22:35.905Z,2.70
2018-12-19T10:25:09.367Z,1.63
2018-12-19T10:27:36.964Z,2.07
2018-12-19T10:30:07.262Z,4.90
2018-12-19T10:32:39.375Z,2.43
2018-12-19T10:35:08.272Z,2.60
2018-12-19T10:37:35.851Z,1.93
2018-12-19T10:40:03.932Z,5.83
2018-12-19T10:42:31.552Z,4.00
2018-12-19T10:44:59.144Z,2.97
2018-12-19T10:47:26.684Z,5.30
2018-12-19T10:49:54.282Z,2.90
2018-12-19T10:52:21.896Z,4.60
2018-12-19T10:54:49.506Z,2.00
2018-12-19T10:57:17.110Z,4.03
2018-12-19T10:59:44.726Z,4.93
2018-12-19T11:02:12.369Z,2.23
2018-12-19T11:04:40.034Z,4.60
2018-12-19T11:07:07.804Z,1.77
2018-12-19T11:09:35.366Z,4.80
2018-12-19T11:12:02.984Z,2.20
2018-12-19T11:14:30.936Z,7.70
2018-12-19T11:16:58.841Z,12.53
2018-12-19T11:19:26.396Z,13.53
2018-12-19T11:21:54.085Z,9.33
2018-12-19T11:24:22.307Z,7.53
2018-12-19T11:26:50.159Z,7.80
2018-12-19T11:29:17.802Z,17.17
2018-12-19T11:31:45.411Z,13.50
2018-12-19T11:34:13.101Z,8.60
2018-12-19T11:36:40.684Z,14.60
2018-12-19T11:39:08.372Z,9.60
2018-12-19T11:41:38.953Z,9.30
2018-12-19T11:44:05.659Z,4.70
2018-12-19T11:46:33.257Z,9.77
2018-12-19T11:49:00.909Z,7.93
2018-12-19T11:51:28.614Z,9.13
2018-12-19T11:53:56.233Z,7.30
2018-12-19T11:56:23.830Z,9.60
2018-12-19T11:58:51.429Z,7.30
2018-12-19T12:01:19.054Z,11.23
2018-12-19T12:03:46.635Z,13.23
2018-12-19T12:06:14.255Z,4.97
2018-12-19T12:08:41.857Z,5.23
2018-12-19T12:11:09.439Z,6.43
2018-12-19T12:13:37.105Z,8.17
2018-12-19T12:16:04.696Z,7.27
2018-12-19T12:18:32.456Z,5.80
2018-12-19T12:21:00.213Z,11.30
2018-12-19T12:23:27.847Z,17.27
2018-12-19T12:25:55.511Z,17.57
2018-12-19T12:28:23.169Z,36.33
2018-12-19T12:30:50.984Z,48.70
2018-12-19T12:33:18.612Z,33.50
2018-12-19T12:35:46.378Z,37.23
2018-12-19T12:38:14.771Z,14.63
2018-12-19T12:40:43.426Z,30.90
2018-12-19T12:43:11.026Z,36.80
2018-12-19T12:45:38.688Z,26.33
2018-12-19T12:48:07.186Z,17.90
2018-12-19T12:50:35.250Z,24.60
2018-12-19T12:53:02.880Z,17.83
2018-12-19T12:55:30.496Z,18.00
2018-12-19T12:57:58.154Z,22.53
2018-12-19T13:00:25.737Z,18.90
2018-12-19T13:02:53.377Z,16.13
2018-12-19T13:05:23.491Z,19.43
2018-12-19T13:07:51.238Z,18.90
2018-12-19T13:10:18.864Z,14.87
2018-12-19T13:12:46.558Z,13.00
2018-12-19T13:15:18.643Z,11.10
2018-12-19T13:17:46.442Z,11.43
2018-12-19T13:20:14.045Z,11.87
2018-12-19T13:22:41.693Z,18.90
2018-12-19T13:25:09.273Z,20.60
2018-12-19T13:27:36.931Z,19.93
2018-12-19T13:30:05.670Z,11.97
2018-12-19T13:32:33.263Z,16.80
2018-12-19T13:35:00.866Z,13.00
2018-12-19T13:37:28.472Z,9.10
2018-12-19T13:39:56.062Z,10.87
2018-12-19T13:42:23.697Z,26.63
2018-12-19T13:44:51.356Z,21.53
2018-12-19T13:47:18.933Z,14.93
2018-12-19T13:49:46.543Z,13.70
2018-12-19T13:52:14.150Z,13.17
2018-12-19T13:54:41.852Z,6.57
2018-12-19T13:57:09.443Z,21.90
2018-12-19T13:59:37.039Z,8.70
2018-12-19T14:02:04.678Z,12.40
2018-12-19T14:04:32.735Z,12.07
2018-12-19T14:07:00.885Z,7.87
2018-12-19T14:09:28.459Z,6.43
2018-12-19T14:11:56.060Z,15.80
2018-12-19T14:14:23.627Z,6.93
2018-12-19T14:16:51.322Z,11.07
2018-12-19T14:19:18.882Z,12.87
2018-12-19T14:21:46.457Z,13.07
2018-12-19T14:24:14.053Z,12.43
2018-12-19T14:26:41.629Z,8.73
2018-12-19T14:29:09.255Z,9.07
2018-12-19T14:31:36.814Z,8.03
2018-12-19T14:34:04.501Z,7.60
2018-12-19T14:36:32.135Z,9.40
2018-12-19T14:38:59.766Z,7.50
2018-12-19T14:41:27.448Z,9.27
2018-12-19T14:43:55.024Z,13.40
2018-12-19T14:46:22.699Z,18.20
2018-12-19T14:48:50.319Z,7.57
2018-12-19T14:51:17.945Z,5.70
2018-12-19T14:53:45.601Z,9.70
2018-12-19T14:56:13.263Z,7.37
2018-12-19T14:58:40.852Z,21.90
2018-12-19T15:01:08.681Z,14.30
2018-12-19T15:03:36.393Z,8.43
2018-12-19T15:06:04.583Z,8.80
2018-12-19T15:08:32.280Z,10.50
2018-12-19T15:10:59.896Z,12.57
2018-12-19T15:13:27.553Z,15.70
2018-12-19T15:16:01.248Z,16.37
2018-12-19T15:18:28.916Z,6.40
2018-12-19T15:20:56.570Z,11.30
2018-12-19T15:23:24.198Z,9.40
2018-12-19T15:25:51.817Z,8.60
2018-12-19T15:28:19.423Z,8.87
2018-12-19T15:30:47.127Z,27.63
2018-12-19T15:33:15.481Z,46.83
2018-12-19T15:35:45.446Z,25.43
2018-12-19T15:38:14.267Z,17.57
2018-12-19T15:40:41.885Z,17.33
2018-12-19T15:43:09.485Z,8.03
2018-12-19T15:45:37.122Z,15.27
2018-12-19T15:48:04.722Z,12.17
2018-12-19T15:50:32.407Z,10.20
2018-12-19T15:53:00.110Z,13.60
2018-12-19T15:55:27.779Z,12.80
2018-12-19T15:57:55.416Z,8.40
2018-12-19T16:00:23.245Z,15.33
2018-12-19T16:02:50.869Z,12.33
2018-12-19T16:05:18.494Z,9.87
2018-12-19T16:07:46.160Z,7.97
2018-12-19T16:10:13.759Z,17.93
2018-12-19T16:12:41.441Z,13.80
2018-12-19T16:15:09.083Z,14.27
2018-12-19T16:17:36.762Z,7.83
2018-12-19T16:20:05.849Z,8.60
2018-12-19T16:22:33.520Z,11.00
2018-12-19T16:25:01.132Z,11.03
2018-12-19T16:27:28.679Z,9.10
2018-12-19T16:29:56.347Z,10.40
2018-12-19T16:32:23.910Z,11.53
2018-12-19T16:34:51.590Z,11.10
2018-12-19T16:37:19.154Z,9.90
2018-12-19T16:39:46.721Z,7.30
2018-12-19T16:42:14.335Z,18.03
2018-12-19T16:44:41.977Z,8.93
2018-12-19T16:47:09.645Z,7.13
2018-12-19T16:49:37.290Z,16.13
2018-12-19T16:52:04.963Z,5.77
2018-12-19T16:54:32.559Z,7.30
2018-12-19T16:57:00.186Z,6.00
2018-12-19T16:59:27.870Z,8.30
2018-12-19T17:01:55.480Z,7.03
2018-12-19T17:04:23.233Z,10.33
2018-12-19T17:06:50.838Z,19.80
2018-12-19T17:09:18.450Z,11.03
2018-12-19T17:11:46.204Z,10.07
2018-12-19T17:14:13.924Z,7.53
2018-12-19T17:16:41.494Z,7.57
2018-12-19T17:19:09.140Z,6.67
2018-12-19T17:21:36.775Z,4.00
2018-12-19T17:24:04.432Z,9.60
2018-12-19T17:26:32.143Z,4.83
2018-12-19T17:28:59.737Z,4.50
2018-12-19T17:31:27.308Z,9.07
2018-12-19T17:33:54.925Z,9.97
2018-12-19T17:36:22.543Z,6.87
2018-12-19T17:38:50.122Z,6.17
2018-12-19T17:41:17.700Z,7.20
2018-12-19T17:43:45.263Z,5.80
2018-12-19T17:46:12.983Z,12.30
2018-12-19T17:48:40.596Z,6.93
2018-12-19T17:51:08.180Z,4.70
2018-12-19T17:53:35.800Z,6.00
2018-12-19T17:56:03.436Z,12.67
2018-12-19T17:58:31.047Z,10.30
2018-12-19T18:00:58.777Z,6.67
2018-12-19T18:03:26.426Z,5.97
2018-12-19T18:05:54.019Z,8.50
2018-12-19T18:08:21.628Z,5.07
2018-12-19T18:10:49.233Z,15.17
2018-12-19T18:13:16.856Z,5.80
2018-12-19T18:15:44.489Z,7.40
2018-12-19T18:18:12.115Z,9.17
2018-12-19T18:20:39.739Z,7.10
2018-12-19T18:23:07.355Z,8.13
2018-12-19T18:25:34.958Z,5.00
2018-12-19T18:28:02.527Z,6.43
2018-12-19T18:30:30.124Z,4.20
2018-12-19T18:32:57.745Z,5.40
2018-12-19T18:35:25.362Z,4.60
2018-12-19T18:37:52.947Z,5.77
2018-12-19T18:40:20.744Z,5.63
2018-12-19T18:42:48.360Z,6.23
2018-12-19T18:45:15.978Z,7.17
2018-12-19T18:47:43.574Z,5.53
2018-12-19T18:50:11.183Z,5.23
2018-12-19T18:52:38.855Z,10.77
2018-12-19T18:55:06.993Z,5.17
2018-12-19T18:57:34.608Z,3.23
2018-12-19T19:00:02.396Z,7.50
2018-12-19T19:02:30.034Z,5.13
2018-12-19T19:04:57.650Z,7.27
2018-12-19T19:07:25.315Z,3.60
2018-12-19T19:09:52.916Z,5.03
2018-12-19T19:12:20.538Z,5.47
2018-12-19T19:14:48.116Z,4.53
2018-12-19T19:17:15.685Z,5.37
2018-12-19T19:19:43.260Z,5.77
2018-12-19T19:22:10.902Z,13.87
2018-12-19T19:24:38.545Z,25.63
2018-12-19T19:27:09.469Z,20.23
2018-12-19T19:29:37.997Z,13.80
2018-12-19T19:32:05.661Z,8.60
2018-12-19T19:34:33.279Z,8.17
2018-12-19T19:37:01.005Z,22.47
2018-12-19T19:39:28.826Z,5.40
2018-12-19T19:41:56.513Z,8.20
2018-12-19T19:44:24.204Z,11.53
2018-12-19T19:46:51.901Z,5.93
2018-12-19T19:49:19.479Z,9.83
2018-12-19T19:51:47.025Z,8.50
2018-12-19T19:54:14.611Z,8.80
2018-12-19T19:56:42.205Z,5.17
2018-12-19T19:59:09.993Z,12.00
2018-12-19T20:01:37.559Z,9.00
2018-12-19T20:04:05.200Z,11.70
2018-12-19T20:06:32.992Z,14.33
2018-12-19T20:09:00.837Z,11.40
2018-12-19T20:11:28.486Z,14.20
2018-12-19T20:13:56.243Z,6.80
2018-12-19T20:16:23.884Z,7.13
2018-12-19T20:18:51.478Z,6.50
2018-12-19T20:21:19.120Z,7.23
2018-12-19T20:23:46.720Z,6.43
2018-12-19T20:26:14.361Z,15.63
2018-12-19T20:28:42.074Z,7.50
2018-12-19T20:31:09.653Z,9.67
2018-12-19T20:33:37.271Z,8.53
2018-12-19T20:36:04.901Z,7.87
2018-12-19T20:38:32.578Z,6.87
2018-12-19T20:41:00.152Z,7.90
2018-12-19T20:43:27.768Z,8.43
2018-12-19T20:45:55.399Z,11.13
2018-12-19T20:48:22.993Z,8.53
2018-12-19T20:50:50.588Z,11.47
2018-12-19T20:53:18.207Z,7.03
2018-12-19T20:55:45.791Z,6.67
2018-12-19T20:58:13.437Z,6.90
2018-12-19T21:00:41.050Z,8.10
2018-12-19T21:03:09.155Z,6.67
2018-12-19T21:05:36.739Z,11.60
2018-12-19T21:08:04.350Z,6.30
2018-12-19T21:10:32.111Z,9.40
2018-12-19T21:12:59.770Z,9.07
2018-12-19T21:15:27.323Z,10.80
2018-12-19T21:18:00.739Z,4.87
2018-12-19T21:20:28.385Z,11.73
2018-12-19T21:22:55.946Z,14.20
2018-12-19T21:25:23.551Z,11.40
2018-12-19T21:27:51.135Z,5.70
2018-12-19T21:30:18.768Z,10.97
2018-12-19T21:32:46.554Z,7.83
2018-12-19T21:35:14.143Z,12.33
2018-12-19T21:37:41.766Z,9.03
2018-12-19T21:40:09.362Z,8.60
2018-12-19T21:42:37.182Z,11.10
2018-12-19T21:45:06.001Z,6.90
2018-12-19T21:47:33.624Z,8.13
2018-12-19T21:50:01.430Z,11.53
2018-12-19T21:52:29.150Z,20.60
2018-12-19T21:54:56.912Z,8.73
2018-12-19T21:57:24.654Z,8.70
2018-12-19T21:59:52.358Z,6.83
2018-12-19T22:02:20.148Z,5.50
2018-12-19T22:04:47.873Z,15.30
2018-12-19T22:07:15.604Z,9.73
2018-12-19T22:09:43.313Z,7.87
2018-12-19T22:12:10.958Z,9.77
2018-12-19T22:14:38.511Z,8.87
2018-12-19T22:17:11.658Z,6.87
2018-12-19T22:19:39.467Z,6.70
2018-12-19T22:22:07.328Z,6.57
2018-12-19T22:24:34.945Z,5.23
2018-12-19T22:27:02.631Z,10.80
2018-12-19T22:29:30.420Z,5.20
2018-12-19T22:31:58.085Z,5.50
2018-12-19T22:34:25.826Z,7.20
2018-12-19T22:36:53.455Z,6.63
2018-12-19T22:39:21.018Z,7.60
2018-12-19T22:41:48.649Z,6.70
2018-12-19T22:44:16.303Z,5.23
2018-12-19T22:46:44.022Z,10.00
2018-12-19T22:49:11.757Z,8.70
2018-12-19T22:51:39.514Z,5.70
2018-12-19T22:54:07.315Z,7.40
2018-12-19T22:56:34.993Z,6.60
2018-12-19T22:59:02.701Z,9.80
2018-12-19T23:01:35.891Z,12.33
2018-12-19T23:04:06.980Z,4.77
2018-12-19T23:06:35.697Z,4.20
2018-12-19T23:09:05.360Z,11.43
2018-12-19T23:11:33.083Z,5.23
2018-12-19T23:14:00.705Z,6.60
2018-12-19T23:16:28.421Z,5.60
2018-12-19T23:18:56.081Z,7.03
2018-12-19T23:21:23.952Z,5.43
2018-12-19T23:23:51.734Z,5.17
2018-12-19T23:26:19.685Z,4.90
2018-12-19T23:28:47.328Z,4.73
2018-12-19T23:31:14.903Z,5.93
2018-12-19T23:33:42.563Z,9.80
2018-12-19T23:36:10.492Z,7.00
2018-12-19T23:38:38.156Z,5.40
2018-12-19T23:41:05.806Z,6.97
2018-12-19T23:43:33.508Z,3.90
2018-12-19T23:46:01.120Z,10.80
2018-12-19T23:48:29.054Z,4.93
2018-12-19T23:50:56.686Z,4.93
2018-12-19T23:53:24.276Z,6.73
2018-12-19T23:55:52.129Z,4.60
2018-12-19T23:58:19.766Z,7.17
